Time;durP1;ratioP1;P1;durP2;ratioP2;P2;SDS_P1;SDS_P2;PMS_P1;PMS_P2;Temp;Humidity;BMP_temperature;BMP_pressure;BME280_temperature;BME280_humidity;BME280_pressure;Samples;Min_cycle;Max_cycle;Signal;HPM_P1;HPM_P2
2021/06/19 00:02:01;;;;;;;0.90;0.90;;;24.50;99.90;;;;;;5118914;27;20230;-87
2021/06/19 00:04:30;;;;;;;1.43;1.33;;;24.60;99.90;;;;;;5105376;28;20176;-87
2021/06/19 00:06:56;;;;;;;0.57;0.57;;;24.70;99.90;;;;;;5103781;28;20658;-88
2021/06/19 00:09:22;;;;;;;0.70;0.70;;;24.60;99.90;;;;;;5104343;28;20255;-87
2021/06/19 00:11:47;;;;;;;1.60;1.17;;;24.40;99.90;;;;;;5103710;28;20593;-87
2021/06/19 00:14:13;;;;;;;1.10;1.10;;;24.10;99.90;;;;;;5111911;28;20176;-87
2021/06/19 00:16:39;;;;;;;3.43;2.27;;;23.90;99.90;;;;;;5098503;28;20197;-88
2021/06/19 00:19:07;;;;;;;1.33;0.83;;;23.70;99.90;;;;;;5109199;28;20320;-87
2021/06/19 00:21:33;;;;;;;2.70;1.03;;;23.90;99.90;;;;;;5111229;28;20182;-87
2021/06/19 00:23:58;;;;;;;0.63;0.60;;;23.90;99.90;;;;;;5102675;28;20200;-87
2021/06/19 00:26:24;;;;;;;0.57;0.57;;;24.10;99.90;;;;;;5094447;28;20241;-88
2021/06/19 00:28:50;;;;;;;0.87;0.80;;;23.90;99.90;;;;;;5102917;28;20212;-87
2021/06/19 00:31:15;;;;;;;4.27;1.80;;;23.70;99.90;;;;;;5092483;28;20667;-87
2021/06/19 00:33:41;;;;;;;2.10;1.23;;;23.50;99.90;;;;;;5108460;28;20181;-87
2021/06/19 00:36:07;;;;;;;2.70;1.30;;;23.30;99.90;;;;;;5093480;28;20233;-87
2021/06/19 00:38:33;;;;;;;0.70;0.60;;;23.50;99.90;;;;;;5100315;28;20206;-87
2021/06/19 00:40:58;;;;;;;2.47;1.97;;;23.50;99.90;;;;;;5099769;28;20182;-87
2021/06/19 00:43:24;;;;;;;1.87;1.00;;;23.30;99.90;;;;;;5091440;28;20184;-87
2021/06/19 00:45:53;;;;;;;0.60;0.60;;;23.30;99.90;;;;;;5101018;28;20176;-87
2021/06/19 00:48:21;;;;;;;0.77;0.77;;;23.20;99.90;;;;;;5105628;28;20831;-87
2021/06/19 00:50:46;;;;;;;5.10;1.23;;;23.20;99.90;;;;;;5114168;28;20546;-87
2021/06/19 00:53:12;;;;;;;1.17;0.63;;;23.10;99.90;;;;;;5115923;28;20172;-87
2021/06/19 00:55:38;;;;;;;0.90;0.90;;;23.00;99.90;;;;;;5100940;28;20172;-87
2021/06/19 00:58:04;;;;;;;1.47;0.70;;;23.20;99.90;;;;;;5111274;28;20187;-87
2021/06/19 01:00:30;;;;;;;0.67;0.67;;;23.30;99.90;;;;;;5099835;28;20262;-87
2021/06/19 01:02:57;;;;;;;0.93;0.80;;;23.30;99.90;;;;;;5099689;28;20177;-87
2021/06/19 01:05:25;;;;;;;1.00;0.90;;;23.10;99.90;;;;;;5111447;28;20248;-87
2021/06/19 01:07:51;;;;;;;1.23;1.20;;;23.10;99.90;;;;;;5106123;28;20196;-89
2021/06/19 01:10:16;;;;;;;1.40;1.23;;;23.00;99.90;;;;;;5094745;28;20199;-87
2021/06/19 01:12:45;;;;;;;0.87;0.73;;;23.10;99.90;;;;;;5097966;28;20515;-87
2021/06/19 01:15:11;;;;;;;1.90;1.23;;;23.10;99.90;;;;;;5098927;28;20164;-87
2021/06/19 01:17:37;;;;;;;0.60;0.60;;;23.10;99.90;;;;;;5098046;28;20367;-89
2021/06/19 01:20:15;;;;;;;1.13;1.07;;;23.10;99.90;;;;;;5108049;28;20290;-87
2021/06/19 01:22:43;;;;;;;3.00;1.33;;;23.10;99.90;;;;;;5103584;28;20258;-87
2021/06/19 01:25:11;;;;;;;4.30;0.77;;;22.90;99.90;;;;;;5094359;28;20216;-87
2021/06/19 01:27:38;;;;;;;0.77;0.73;;;22.60;99.90;;;;;;5099285;28;20673;-87
2021/06/19 01:30:07;;;;;;;5.63;3.33;;;22.50;99.90;;;;;;5107810;28;20226;-87
2021/06/19 01:32:35;;;;;;;1.20;1.17;;;22.40;99.90;;;;;;5120745;27;20196;-87
2021/06/19 01:35:01;;;;;;;1.47;1.17;;;22.30;99.90;;;;;;5114482;27;20184;-87
2021/06/19 01:37:27;;;;;;;0.47;0.47;;;22.30;99.90;;;;;;5101952;28;20682;-87
2021/06/19 01:40:05;;;;;;;1.03;0.77;;;22.40;99.90;;;;;;5100557;28;20584;-87
2021/06/19 01:42:31;;;;;;;1.27;0.90;;;22.70;99.90;;;;;;5100841;28;20184;-87
2021/06/19 01:44:56;;;;;;;1.17;0.80;;;22.90;99.90;;;;;;5109190;28;20977;-88
2021/06/19 01:47:22;;;;;;;0.70;0.70;;;23.00;99.90;;;;;;5106580;28;20214;-87
2021/06/19 01:49:48;;;;;;;0.50;0.50;;;23.20;99.90;;;;;;5104320;28;20207;-87
2021/06/19 01:52:18;;;;;;;0.70;0.70;;;23.30;99.90;;;;;;5108973;28;20186;-87
2021/06/19 01:54:43;;;;;;;0.77;0.73;;;23.40;99.90;;;;;;5099864;28;20553;-88
2021/06/19 01:57:09;;;;;;;0.67;0.63;;;23.40;99.90;;;;;;5107602;28;20183;-87
2021/06/19 01:59:35;;;;;;;0.60;0.53;;;23.50;99.90;;;;;;5103036;28;20229;-87
2021/06/19 02:02:01;;;;;;;0.90;0.90;;;23.60;99.90;;;;;;5105465;28;20173;-87
2021/06/19 02:04:26;;;;;;;0.37;0.33;;;23.70;99.90;;;;;;5110736;28;20187;-87
2021/06/19 02:06:53;;;;;;;0.97;0.73;;;23.70;99.90;;;;;;5098314;28;20176;-88
2021/06/19 02:09:19;;;;;;;0.40;0.40;;;23.70;99.90;;;;;;5104697;28;20583;-87
2021/06/19 02:11:45;;;;;;;1.50;0.60;;;23.70;99.90;;;;;;5095365;28;20238;-87
2021/06/19 02:14:15;;;;;;;1.20;1.10;;;23.60;99.90;;;;;;5103366;28;20586;-88
2021/06/19 02:16:41;;;;;;;0.93;0.83;;;23.50;99.90;;;;;;5124509;27;20558;-88
2021/06/19 02:19:08;;;;;;;1.03;0.77;;;23.30;99.90;;;;;;5107832;28;20286;-87
2021/06/19 02:21:34;;;;;;;1.37;1.27;;;23.40;99.90;;;;;;5108294;28;20184;-87
2021/06/19 02:24:00;;;;;;;1.03;0.80;;;23.20;99.90;;;;;;5118693;27;20203;-87
2021/06/19 02:26:26;;;;;;;0.47;0.47;;;23.20;99.90;;;;;;5098595;28;20189;-87
2021/06/19 02:28:52;;;;;;;0.80;0.80;;;23.30;99.90;;;;;;5109074;28;20223;-87
2021/06/19 02:31:19;;;;;;;0.53;0.53;;;23.40;99.90;;;;;;5110867;28;20184;-87
2021/06/19 02:33:46;;;;;;;0.63;0.63;;;23.50;99.90;;;;;;5094530;28;20313;-87
2021/06/19 02:36:12;;;;;;;0.53;0.47;;;23.60;99.90;;;;;;5106979;28;20180;-87
2021/06/19 02:38:38;;;;;;;2.40;0.73;;;23.70;99.90;;;;;;5110886;27;20219;-87
2021/06/19 02:41:04;;;;;;;0.60;0.60;;;23.70;99.90;;;;;;5107217;28;20176;-87
2021/06/19 02:43:29;;;;;;;0.67;0.67;;;23.70;99.90;;;;;;5097063;28;20188;-87
2021/06/19 02:45:59;;;;;;;2.30;0.73;;;23.70;99.90;;;;;;5107545;28;20207;-87
2021/06/19 02:48:27;;;;;;;1.73;0.97;;;23.70;99.90;;;;;;5107378;28;20223;-87
2021/06/19 02:50:54;;;;;;;0.53;0.53;;;23.60;99.90;;;;;;5095625;28;20652;-87
2021/06/19 02:53:20;;;;;;;2.00;1.13;;;23.70;99.90;;;;;;5104519;28;20168;-88
2021/06/19 02:55:46;;;;;;;1.50;1.40;;;23.40;99.90;;;;;;5107599;28;20541;-87
2021/06/19 02:58:13;;;;;;;11.90;1.67;;;22.90;99.90;;;;;;5093191;28;20255;-88
2021/06/19 03:00:39;;;;;;;0.67;0.67;;;22.70;99.90;;;;;;5100412;28;20249;-87
2021/06/19 03:03:06;;;;;;;0.60;0.53;;;22.50;99.90;;;;;;5093336;28;20652;-87
2021/06/19 03:05:33;;;;;;;1.23;1.23;;;22.60;99.90;;;;;;5092687;28;20184;-87
2021/06/19 03:08:00;;;;;;;0.70;0.70;;;22.50;99.90;;;;;;5099238;28;20188;-87
2021/06/19 03:10:34;;;;;;;1.13;0.80;;;22.60;99.90;;;;;;5110095;28;20187;-87
2021/06/19 03:13:00;;;;;;;0.40;0.40;;;22.40;99.90;;;;;;5102739;28;20179;-87
2021/06/19 03:15:26;;;;;;;0.57;0.57;;;22.30;99.90;;;;;;5092764;28;20385;-88
2021/06/19 03:17:52;;;;;;;2.03;1.40;;;22.20;99.90;;;;;;5102799;28;20184;-88
2021/06/19 03:20:19;;;;;;;1.03;0.80;;;22.20;99.90;;;;;;5111302;28;20272;-88
2021/06/19 03:26:06;;;;;;;0.73;0.60;;;22.00;99.90;;;;;;5096129;28;20206;-88
2021/06/19 03:28:32;;;;;;;1.07;0.97;;;21.80;99.90;;;;;;5093142;28;20287;-88
2021/06/19 03:30:58;;;;;;;1.47;0.97;;;21.80;99.90;;;;;;5114295;28;20206;-92
2021/06/19 03:33:23;;;;;;;1.50;1.30;;;21.50;99.90;;;;;;5134297;27;20187;-91
2021/06/19 03:35:49;;;;;;;1.03;0.67;;;21.50;99.90;;;;;;5124099;28;20202;-91
2021/06/19 03:38:14;;;;;;;1.27;1.27;;;21.60;99.90;;;;;;5130098;28;20204;-90
2021/06/19 03:40:40;;;;;;;2.73;1.10;;;21.60;99.90;;;;;;5123967;28;20180;-88
2021/06/19 03:43:07;;;;;;;1.33;1.30;;;21.40;99.90;;;;;;5106220;28;20180;-87
2021/06/19 03:45:35;;;;;;;0.70;0.50;;;21.30;99.90;;;;;;5102556;28;20179;-89
2021/06/19 03:48:01;;;;;;;0.80;0.80;;;21.40;99.90;;;;;;5096621;28;20245;-89
2021/06/19 03:50:28;;;;;;;0.97;0.97;;;21.40;99.90;;;;;;5099620;28;20228;-88
2021/06/19 03:52:55;;;;;;;0.77;0.43;;;21.50;99.90;;;;;;5099376;28;20183;-88
2021/06/19 03:55:21;;;;;;;1.00;0.73;;;22.00;99.90;;;;;;5114910;27;20225;-88
2021/06/19 03:57:47;;;;;;;3.17;1.50;;;22.40;99.90;;;;;;5091491;28;20188;-89
2021/06/19 04:00:16;;;;;;;1.67;0.70;;;22.60;99.90;;;;;;5097890;28;20220;-89
2021/06/19 04:02:44;;;;;;;0.70;0.70;;;23.10;99.90;;;;;;5098137;28;20275;-88
2021/06/19 04:05:12;;;;;;;0.63;0.63;;;23.10;99.90;;;;;;5112168;27;20184;-88
2021/06/19 04:07:37;;;;;;;0.93;0.87;;;22.90;99.90;;;;;;5111566;28;20212;-88
2021/06/19 04:10:07;;;;;;;0.53;0.53;;;23.30;99.90;;;;;;5100971;28;20306;-88
2021/06/19 04:12:34;;;;;;;1.33;0.97;;;24.00;99.90;;;;;;5099581;28;20180;-88
2021/06/19 04:15:00;;;;;;;1.77;1.60;;;24.90;99.90;;;;;;5106010;28;20595;-88
2021/06/19 04:17:25;;;;;;;0.97;0.83;;;25.70;99.90;;;;;;5105609;28;20198;-88
2021/06/19 04:19:51;;;;;;;1.33;1.23;;;25.90;99.90;;;;;;5095169;28;20684;-88
2021/06/19 04:22:17;;;;;;;4.20;2.73;;;25.60;99.90;;;;;;5096349;28;20176;-88
2021/06/19 04:24:43;;;;;;;1.80;0.87;;;25.80;99.90;;;;;;5097621;28;20203;-88
2021/06/19 04:27:21;;;;;;;1.83;1.67;;;25.70;99.90;;;;;;5107851;28;20260;-88
2021/06/19 04:29:48;;;;;;;0.63;0.63;;;25.50;99.90;;;;;;5104413;28;20210;-88
2021/06/19 04:32:16;;;;;;;0.97;0.90;;;25.50;99.90;;;;;;5105422;28;20229;-88
2021/06/19 04:34:42;;;;;;;1.77;1.50;;;25.00;99.90;;;;;;5109944;28;20180;-88
2021/06/19 04:37:13;;;;;;;0.80;0.80;;;24.60;99.90;;;;;;5106642;28;20179;-89
2021/06/19 04:39:48;;;;;;;2.23;1.60;;;24.10;99.90;;;;;;5107407;28;20706;-89
2021/06/19 04:42:15;;;;;;;2.90;2.50;;;23.70;99.90;;;;;;5101478;28;20651;-88
2021/06/19 04:47:22;;;;;;;0.63;0.63;;;24.30;99.90;;;;;;5111536;28;20195;-87
2021/06/19 04:49:48;;;;;;;1.70;0.80;;;24.70;99.90;;;;;;5105859;28;20204;-88
2021/06/19 04:52:14;;;;;;;1.17;1.00;;;24.60;99.90;;;;;;5106995;28;20183;-88
2021/06/19 04:54:39;;;;;;;1.70;0.70;;;24.20;99.90;;;;;;5102552;28;20201;-87
2021/06/19 04:57:06;;;;;;;1.80;1.70;;;23.90;99.90;;;;;;5115503;28;20519;-87
2021/06/19 04:59:35;;;;;;;1.77;1.33;;;23.90;99.90;;;;;;5113248;28;20196;-87
2021/06/19 05:02:01;;;;;;;1.17;1.07;;;23.70;99.90;;;;;;5106822;28;20195;-87
2021/06/19 05:04:27;;;;;;;1.23;1.03;;;23.70;99.90;;;;;;5115806;27;20181;-87
2021/06/19 05:06:53;;;;;;;0.67;0.63;;;23.60;99.90;;;;;;5099622;28;20176;-87
2021/06/19 05:09:19;;;;;;;0.70;0.70;;;23.60;99.90;;;;;;5109556;28;20215;-88
2021/06/19 05:11:45;;;;;;;2.33;1.10;;;23.90;99.90;;;;;;5098735;28;20176;-87
2021/06/19 05:14:10;;;;;;;1.53;1.10;;;23.90;99.90;;;;;;5121413;27;20543;-88
2021/06/19 05:16:36;;;;;;;0.80;0.80;;;24.10;99.90;;;;;;5112256;27;20180;-90
2021/06/19 05:19:02;;;;;;;0.97;0.70;;;24.50;99.90;;;;;;5110794;28;20199;-85
2021/06/19 05:21:27;;;;;;;0.97;0.97;;;24.80;99.90;;;;;;5100721;28;20176;-87
2021/06/19 05:23:53;;;;;;;0.73;0.33;;;25.00;99.90;;;;;;5107972;28;20183;-85
2021/06/19 05:26:18;;;;;;;1.00;0.93;;;25.30;99.90;;;;;;5094387;28;20192;-88
2021/06/19 05:28:44;;;;;;;0.63;0.63;;;25.40;99.90;;;;;;5102217;28;20211;-87
2021/06/19 05:31:10;;;;;;;1.23;1.23;;;25.60;99.90;;;;;;5099386;28;20612;-87
2021/06/19 05:33:37;;;;;;;0.63;0.47;;;25.50;99.90;;;;;;5126825;27;20176;-88
2021/06/19 05:36:03;;;;;;;0.60;0.60;;;25.80;99.90;;;;;;5099727;28;20180;-87
2021/06/19 05:38:29;;;;;;;2.03;0.90;;;25.90;99.90;;;;;;5103113;28;20179;-88
2021/06/19 05:40:55;;;;;;;1.30;1.20;;;25.90;99.90;;;;;;5112957;28;20176;-88
2021/06/19 05:43:20;;;;;;;0.80;0.73;;;26.00;99.90;;;;;;5112089;28;20179;-88
2021/06/19 05:45:47;;;;;;;0.77;0.60;;;26.00;99.90;;;;;;5112010;28;20214;-88
2021/06/19 05:48:13;;;;;;;0.83;0.83;;;26.10;99.90;;;;;;5098615;28;20690;-89
2021/06/19 05:50:38;;;;;;;0.40;0.40;;;26.10;99.90;;;;;;5100429;28;20184;-88
2021/06/19 05:53:04;;;;;;;0.77;0.60;;;26.30;99.90;;;;;;5104319;28;20176;-88
2021/06/19 05:55:30;;;;;;;0.77;0.60;;;26.40;99.90;;;;;;5111067;28;20184;-88
2021/06/19 05:57:55;;;;;;;1.17;1.07;;;26.50;99.90;;;;;;5101957;28;20275;-88
2021/06/19 06:00:21;;;;;;;1.40;1.23;;;26.60;99.90;;;;;;5107522;28;20291;-88
2021/06/19 06:02:47;;;;;;;0.50;0.50;;;26.60;99.90;;;;;;5097993;28;20683;-88
2021/06/19 06:05:13;;;;;;;1.17;0.80;;;26.40;99.90;;;;;;5099803;28;20245;-88
2021/06/19 06:07:39;;;;;;;0.63;0.63;;;26.60;99.90;;;;;;5103002;28;20235;-88
2021/06/19 06:10:06;;;;;;;0.33;0.33;;;26.70;99.90;;;;;;5107834;28;20238;-88
2021/06/19 06:12:32;;;;;;;0.43;0.43;;;26.80;99.90;;;;;;5111278;27;20176;-88
2021/06/19 06:14:57;;;;;;;0.83;0.60;;;26.90;99.90;;;;;;5105613;28;20559;-88
2021/06/19 06:17:23;;;;;;;0.37;0.37;;;26.90;99.90;;;;;;5102084;28;20215;-88
2021/06/19 06:19:49;;;;;;;1.17;1.10;;;27.00;99.90;;;;;;5106533;28;20204;-88
2021/06/19 06:22:14;;;;;;;1.57;0.80;;;27.20;99.90;;;;;;5111382;28;20600;-89
2021/06/19 06:24:40;;;;;;;0.70;0.70;;;27.30;99.90;;;;;;5105402;28;20184;-88
2021/06/19 06:27:06;;;;;;;0.30;0.30;;;27.30;99.90;;;;;;5105525;28;20578;-88
2021/06/19 06:29:32;;;;;;;0.40;0.40;;;27.40;99.90;;;;;;5098444;28;20203;-88
2021/06/19 06:31:58;;;;;;;0.50;0.50;;;27.50;99.90;;;;;;5101153;28;20186;-88
2021/06/19 06:34:24;;;;;;;0.30;0.30;;;27.50;99.90;;;;;;5100479;28;20217;-87
2021/06/19 06:36:50;;;;;;;0.73;0.70;;;27.50;99.90;;;;;;5116602;27;20180;-87
2021/06/19 06:39:16;;;;;;;0.20;0.20;;;27.50;99.90;;;;;;5107506;28;20200;-88
2021/06/19 06:41:42;;;;;;;0.50;0.50;;;27.70;99.90;;;;;;5101416;28;20183;-87
2021/06/19 06:44:08;;;;;;;0.47;0.47;;;27.60;99.90;;;;;;5100759;28;20656;-88
2021/06/19 06:46:33;;;;;;;0.65;0.40;;;27.70;99.90;;;;;;5101363;28;20276;-87
2021/06/19 06:48:59;;;;;;;0.47;0.47;;;27.80;99.90;;;;;;5100841;28;20671;-88
2021/06/19 06:51:25;;;;;;;0.47;0.47;;;27.70;99.90;;;;;;5108330;28;20179;-88
2021/06/19 06:53:51;;;;;;;0.60;0.60;;;27.80;99.90;;;;;;5110116;28;20188;-87
2021/06/19 06:56:17;;;;;;;0.50;0.40;;;27.80;99.90;;;;;;5108774;28;20188;-89
2021/06/19 06:58:42;;;;;;;0.80;0.80;;;27.80;99.90;;;;;;5112844;28;20210;-88
2021/06/19 07:01:08;;;;;;;0.52;0.52;;;28.00;99.90;;;;;;5093359;28;20547;-88
2021/06/19 07:03:34;;;;;;;0.65;0.52;;;28.00;99.90;;;;;;5107000;28;20279;-88
2021/06/19 07:06:03;;;;;;;0.65;0.65;;;27.90;99.90;;;;;;5100429;28;20266;-88
2021/06/19 07:08:29;;;;;;;0.43;0.43;;;28.10;99.90;;;;;;5111047;28;20196;-87
2021/06/19 07:10:54;;;;;;;1.30;0.73;;;28.10;99.90;;;;;;5111863;28;20180;-87
2021/06/19 07:13:20;;;;;;;0.40;0.40;;;27.90;99.90;;;;;;5112435;28;20175;-88
2021/06/19 07:15:46;;;;;;;0.68;0.50;;;28.10;99.90;;;;;;5092798;28;20185;-88
2021/06/19 07:18:12;;;;;;;0.52;0.52;;;28.30;99.90;;;;;;5107877;28;20272;-88
2021/06/19 07:20:38;;;;;;;0.85;0.40;;;28.60;99.90;;;;;;5101468;28;20188;-88
2021/06/19 07:23:04;;;;;;;0.45;0.45;;;28.50;99.90;;;;;;5114565;28;20671;-88
2021/06/19 07:25:30;;;;;;;0.47;0.47;;;28.70;99.90;;;;;;5105440;28;20748;-88
2021/06/19 07:27:58;;;;;;;0.60;0.60;;;28.80;99.90;;;;;;5106567;28;20693;-88
2021/06/19 07:30:24;;;;;;;0.32;0.32;;;29.00;99.90;;;;;;5094935;28;20208;-88
2021/06/19 07:32:50;;;;;;;0.60;0.60;;;29.00;99.90;;;;;;5102270;28;20195;-88
2021/06/19 07:35:16;;;;;;;0.55;0.55;;;29.30;99.90;;;;;;5096329;28;20550;-88
2021/06/19 07:37:42;;;;;;;5.22;0.57;;;29.20;99.90;;;;;;5095841;28;20529;-88
2021/06/19 07:40:10;;;;;;;0.50;0.28;;;29.40;99.90;;;;;;5092740;28;20215;-88
2021/06/19 07:42:36;;;;;;;0.43;0.43;;;29.50;99.90;;;;;;5103279;28;20648;-86
2021/06/19 07:45:04;;;;;;;0.50;0.50;;;29.70;99.90;;;;;;5093941;28;20192;-85
2021/06/19 07:47:29;;;;;;;0.40;0.40;;;29.80;99.90;;;;;;5100217;28;20207;-86
2021/06/19 07:49:55;;;;;;;1.38;1.27;;;29.70;99.90;;;;;;5099473;28;20249;-85
2021/06/19 07:52:21;;;;;;;3.72;0.70;;;29.50;99.90;;;;;;5105283;28;20230;-85
2021/06/19 07:54:48;;;;;;;0.88;0.60;;;29.80;99.90;;;;;;5097267;28;20183;-85
2021/06/19 07:57:13;;;;;;;0.68;0.68;;;29.80;99.90;;;;;;5099050;28;20200;-85
2021/06/19 07:59:39;;;;;;;0.82;0.82;;;29.90;99.90;;;;;;5103434;28;20609;-85
2021/06/19 08:02:07;;;;;;;0.90;0.90;;;30.00;99.90;;;;;;5110814;28;20211;-85
2021/06/19 08:04:34;;;;;;;1.80;1.23;;;30.10;99.90;;;;;;5096450;28;20723;-85
2021/06/19 08:07:00;;;;;;;1.55;0.73;;;30.20;99.90;;;;;;5110509;28;20175;-84
2021/06/19 08:09:26;;;;;;;5.32;0.68;;;30.00;99.90;;;;;;5098656;28;20203;-85
2021/06/19 08:11:52;;;;;;;0.60;0.60;;;29.70;99.90;;;;;;5099310;28;20188;-86
2021/06/19 08:14:18;;;;;;;0.82;0.57;;;29.80;99.90;;;;;;5093993;28;20271;-86
2021/06/19 08:16:50;;;;;;;0.40;0.40;;;30.00;99.90;;;;;;5094534;28;20227;-86
2021/06/19 08:19:16;;;;;;;0.45;0.45;;;29.80;99.90;;;;;;5101850;28;20215;-86
2021/06/19 08:21:42;;;;;;;2.40;0.65;;;29.90;99.90;;;;;;5095163;28;20652;-86
2021/06/19 08:24:08;;;;;;;0.55;0.38;;;30.20;99.90;;;;;;5094400;28;20181;-86
2021/06/19 08:26:36;;;;;;;0.60;0.60;;;30.20;99.90;;;;;;5103512;28;20207;-86
2021/06/19 08:29:06;;;;;;;0.63;0.63;;;30.40;99.90;;;;;;5100332;28;20229;-86
2021/06/19 08:31:37;;;;;;;0.77;0.75;;;30.70;99.90;;;;;;5102852;28;20191;-86
2021/06/19 08:34:03;;;;;;;1.48;0.80;;;30.90;99.90;;;;;;5114153;28;20221;-86
2021/06/19 08:36:30;;;;;;;0.82;0.82;;;30.70;99.90;;;;;;5104425;28;20181;-86
2021/06/19 08:38:56;;;;;;;0.85;0.85;;;30.80;99.90;;;;;;5103391;28;20196;-86
2021/06/19 08:41:23;;;;;;;0.70;0.70;;;30.90;99.90;;;;;;5101282;28;20183;-86
2021/06/19 08:43:48;;;;;;;0.75;0.68;;;30.80;99.90;;;;;;5109249;28;20194;-86
2021/06/19 08:46:18;;;;;;;1.02;1.02;;;30.70;99.90;;;;;;5102565;28;20189;-86
2021/06/19 08:48:48;;;;;;;0.50;0.50;;;30.90;99.90;;;;;;5094416;28;20222;-86
2021/06/19 08:51:13;;;;;;;0.52;0.38;;;31.10;99.90;;;;;;5108201;28;20180;-85
2021/06/19 08:53:40;;;;;;;0.60;0.60;;;31.10;99.90;;;;;;5107959;28;20713;-86
2021/06/19 08:56:06;;;;;;;0.25;0.25;;;31.30;99.90;;;;;;5112459;28;20567;-86
2021/06/19 08:58:31;;;;;;;0.45;0.45;;;31.20;99.90;;;;;;5115395;28;20177;-85
2021/06/19 09:00:57;;;;;;;0.30;0.30;;;31.40;99.90;;;;;;5104645;28;20655;-86
2021/06/19 09:03:25;;;;;;;0.40;0.40;;;31.30;99.90;;;;;;5107712;28;20183;-85
2021/06/19 09:06:13;;;;;;;0.50;0.50;;;31.40;99.90;;;;;;5099856;28;20655;-86
2021/06/19 09:09:02;;;;;;;0.38;0.38;;;31.10;99.90;;;;;;5096559;28;20226;-85
2021/06/19 09:11:37;;;;;;;0.30;0.30;;;31.20;99.90;;;;;;5104889;28;20659;-86
2021/06/19 09:14:06;;;;;;;0.73;0.60;;;31.60;99.90;;;;;;5116237;27;20175;-86
2021/06/19 09:16:32;;;;;;;0.43;0.43;;;31.20;99.90;;;;;;5096022;28;20186;-86
2021/06/19 09:18:58;;;;;;;0.95;0.50;;;30.80;99.90;;;;;;5101014;28;20713;-86
2021/06/19 09:21:29;;;;;;;0.38;0.38;;;30.70;99.90;;;;;;5100089;28;20525;-86
2021/06/19 09:23:55;;;;;;;1.30;1.20;;;30.70;99.90;;;;;;5109636;28;20187;-86
2021/06/19 09:26:27;;;;;;;0.50;0.40;;;31.10;99.90;;;;;;5111417;27;20835;-86
2021/06/19 09:29:07;;;;;;;0.60;0.50;;;30.80;99.90;;;;;;5097885;28;20296;-88
2021/06/19 09:31:44;;;;;;;0.40;0.40;;;30.70;99.90;;;;;;5112482;28;20171;-87
2021/06/19 09:34:14;;;;;;;0.40;0.40;;;31.00;99.90;;;;;;5101490;28;20180;-87
2021/06/19 09:37:03;;;;;;;0.20;0.20;;;31.30;99.90;;;;;;5107334;28;20191;-91
2021/06/19 09:39:31;;;;;;;0.30;0.30;;;31.60;99.90;;;;;;5096006;28;20223;-88
2021/06/19 09:42:03;;;;;;;0.50;0.50;;;31.90;99.90;;;;;;5097870;28;20200;-87
2021/06/19 09:44:47;;;;;;;0.55;0.55;;;32.00;99.90;;;;;;5106885;28;20188;-88
2021/06/19 09:47:15;;;;;;;0.80;0.50;;;32.10;99.90;;;;;;5113549;27;20180;-88
2021/06/19 09:49:43;;;;;;;0.63;0.63;;;32.30;99.90;;;;;;5105042;28;20754;-89
2021/06/19 09:52:13;;;;;;;1.83;0.75;;;32.40;99.90;;;;;;5101494;28;20203;-88
2021/06/19 09:54:40;;;;;;;1.10;0.98;;;32.50;99.90;;;;;;5106543;28;20180;-88
2021/06/19 09:57:08;;;;;;;2.58;0.65;;;32.40;99.90;;;;;;5101051;28;20244;-89
2021/06/19 09:59:36;;;;;;;0.70;0.70;;;32.50;99.90;;;;;;5102134;28;20195;-88
2021/06/19 10:02:03;;;;;;;0.55;0.55;;;32.50;99.90;;;;;;5098769;28;20187;-91
2021/06/19 10:04:31;;;;;;;2.25;2.05;;;32.60;99.90;;;;;;5107410;28;20184;-89
2021/06/19 10:06:58;;;;;;;0.35;0.35;;;32.60;99.90;;;;;;5108165;28;20519;-88
2021/06/19 10:09:24;;;;;;;0.47;0.47;;;32.60;99.90;;;;;;5099699;28;20216;-88
2021/06/19 10:11:52;;;;;;;0.75;0.75;;;32.60;99.90;;;;;;5123679;27;20183;-89
2021/06/19 10:14:19;;;;;;;0.82;0.82;;;32.50;99.90;;;;;;5098811;28;20173;-89
2021/06/19 10:16:48;;;;;;;0.40;0.40;;;32.50;99.90;;;;;;5102940;28;20227;-88
2021/06/19 10:19:16;;;;;;;0.50;0.47;;;32.80;99.90;;;;;;5109082;28;20695;-89
2021/06/19 10:21:43;;;;;;;0.50;0.50;;;32.60;99.90;;;;;;5109133;28;20195;-87
2021/06/19 10:24:11;;;;;;;1.10;1.00;;;32.80;99.90;;;;;;5114186;28;20184;-90
2021/06/19 10:26:38;;;;;;;0.52;0.52;;;32.60;99.90;;;;;;5129316;28;20221;-92
2021/06/19 10:29:06;;;;;;;0.52;0.52;;;32.90;99.90;;;;;;5131114;28;20225;-90
2021/06/19 10:31:41;;;;;;;0.80;0.80;;;33.00;99.90;;;;;;5127670;28;20179;-92
2021/06/19 10:34:23;;;;;;;0.95;0.80;;;33.00;99.90;;;;;;5128259;28;20234;-89
2021/06/19 10:37:15;;;;;;;0.73;0.73;;;33.00;99.90;;;;;;5106142;28;20550;-89
2021/06/19 10:39:45;;;;;;;0.70;0.70;;;32.40;99.90;;;;;;5100152;28;20200;-88
2021/06/19 10:42:16;;;;;;;0.60;0.45;;;32.30;99.90;;;;;;5095411;28;20202;-88
2021/06/19 10:45:10;;;;;;;0.43;0.43;;;31.90;99.90;;;;;;5107763;28;20276;-88
2021/06/19 10:48:04;;;;;;;2.55;0.63;;;32.30;99.90;;;;;;5106813;28;20203;-88
2021/06/19 10:50:30;;;;;;;0.75;0.75;;;31.30;99.90;;;;;;5104300;28;20192;-88
2021/06/19 10:53:20;;;;;;;0.50;0.50;;;31.60;99.90;;;;;;5120832;27;20190;-88
2021/06/19 10:55:53;;;;;;;0.82;0.80;;;32.30;99.90;;;;;;5099727;28;20547;-88
2021/06/19 10:58:23;;;;;;;1.40;1.00;;;32.70;99.90;;;;;;5095190;28;20644;-89
2021/06/19 11:00:50;;;;;;;0.30;0.30;;;32.30;99.90;;;;;;5103263;28;20191;-89
2021/06/19 11:03:17;;;;;;;0.50;0.50;;;32.40;99.90;;;;;;5101087;28;20176;-88
2021/06/19 11:05:43;;;;;;;0.63;0.63;;;33.00;99.90;;;;;;5096508;28;20720;-88
2021/06/19 11:08:14;;;;;;;0.65;0.57;;;33.30;99.90;;;;;;5099442;28;20216;-89
2021/06/19 11:10:46;;;;;;;0.40;0.40;;;33.60;99.90;;;;;;5100538;28;20250;-88
2021/06/19 11:13:42;;;;;;;0.70;0.70;;;33.30;99.90;;;;;;5094254;28;20179;-88
2021/06/19 11:16:32;;;;;;;0.95;0.82;;;33.60;99.90;;;;;;5084000;28;20192;-88
2021/06/19 11:18:59;;;;;;;0.75;0.75;;;33.80;99.90;;;;;;5093923;28;20254;-89
2021/06/19 11:21:33;;;;;;;5.35;1.20;;;33.40;99.90;;;;;;5108198;28;20179;-88
2021/06/19 11:24:07;;;;;;;0.68;0.68;;;33.10;99.90;;;;;;5102956;28;20194;-88
2021/06/19 11:27:00;;;;;;;0.93;0.73;;;32.80;99.90;;;;;;5097327;28;20205;-89
2021/06/19 11:29:38;;;;;;;0.52;0.50;;;32.10;99.90;;;;;;5101876;28;20212;-88
2021/06/19 11:32:23;;;;;;;0.98;0.80;;;33.00;99.90;;;;;;5107017;28;20187;-88
2021/06/19 11:34:50;;;;;;;1.13;1.02;;;32.80;99.90;;;;;;5097524;28;20183;-88
2021/06/19 11:37:16;;;;;;;0.75;0.75;;;33.10;99.90;;;;;;5102552;28;20180;-88
2021/06/19 11:39:41;;;;;;;3.08;2.47;;;33.50;99.90;;;;;;5097917;28;20201;-88
2021/06/19 11:42:08;;;;;;;0.82;0.65;;;33.80;99.90;;;;;;5112585;27;20218;-88
2021/06/19 11:44:49;;;;;;;0.60;0.60;;;34.00;99.90;;;;;;5105646;28;20202;-89
2021/06/19 11:47:15;;;;;;;0.93;0.75;;;33.80;99.90;;;;;;5098562;28;20180;-89
2021/06/19 11:49:43;;;;;;;0.60;0.60;;;33.80;99.90;;;;;;5103304;28;20215;-89
2021/06/19 11:52:12;;;;;;;1.45;1.35;;;33.80;99.90;;;;;;5120374;27;20276;-89
2021/06/19 11:54:43;;;;;;;0.43;0.43;;;34.00;99.90;;;;;;5105905;28;20176;-89
2021/06/19 11:57:10;;;;;;;1.08;0.98;;;33.70;99.90;;;;;;5109819;28;20190;-89
2021/06/19 11:59:36;;;;;;;0.40;0.40;;;34.10;99.90;;;;;;5095708;28;20278;-89
2021/06/19 12:02:02;;;;;;;0.68;0.68;;;34.40;99.90;;;;;;5106243;28;20312;-89
2021/06/19 12:04:31;;;;;;;0.60;0.60;;;34.40;99.90;;;;;;5091073;28;20188;-89
2021/06/19 12:06:59;;;;;;;0.60;0.60;;;34.40;99.90;;;;;;5097196;28;20184;-89
2021/06/19 12:09:28;;;;;;;1.10;1.10;;;34.50;99.90;;;;;;5104086;28;20220;-88
2021/06/19 12:12:05;;;;;;;1.27;1.17;;;34.70;99.90;;;;;;5107963;28;20188;-88
2021/06/19 12:14:37;;;;;;;0.90;0.80;;;34.40;99.90;;;;;;5100549;28;20233;-88
2021/06/19 12:17:05;;;;;;;0.65;0.65;;;34.70;99.90;;;;;;5100416;28;20199;-89
2021/06/19 12:19:34;;;;;;;0.90;0.90;;;34.80;99.90;;;;;;5108647;28;20310;-89
2021/06/19 12:22:05;;;;;;;1.08;1.00;;;34.80;99.90;;;;;;5100254;28;20184;-88
2021/06/19 12:24:36;;;;;;;2.85;0.65;;;35.00;99.90;;;;;;5110038;28;20184;-89
2021/06/19 12:27:15;;;;;;;0.85;0.85;;;34.40;99.90;;;;;;5100767;28;20823;-88
2021/06/19 12:29:51;;;;;;;0.88;0.88;;;34.70;99.90;;;;;;5106598;28;20243;-89
2021/06/19 12:32:38;;;;;;;0.73;0.73;;;34.60;99.90;;;;;;5102192;28;20180;-89
2021/06/19 12:35:04;;;;;;;0.82;0.82;;;34.80;99.90;;;;;;5104245;28;20180;-88
2021/06/19 12:37:40;;;;;;;1.05;0.98;;;35.00;99.90;;;;;;5097732;28;20674;-89
2021/06/19 12:40:12;;;;;;;1.15;0.55;;;34.90;99.90;;;;;;5097484;28;20207;-89
2021/06/19 12:42:50;;;;;;;0.63;0.60;;;33.90;99.90;;;;;;5100571;28;20203;-89
2021/06/19 12:45:18;;;;;;;0.65;0.65;;;33.90;99.90;;;;;;5095979;28;20612;-89
2021/06/19 12:47:46;;;;;;;0.93;0.80;;;34.00;99.90;;;;;;5099700;28;20203;-88
2021/06/19 12:50:18;;;;;;;0.57;0.57;;;34.20;99.90;;;;;;5107200;28;20755;-88
2021/06/19 12:53:05;;;;;;;1.08;0.80;;;34.50;99.90;;;;;;5110955;28;20191;-88
2021/06/19 12:55:43;;;;;;;0.65;0.65;;;34.50;99.90;;;;;;5108963;28;20549;-89
2021/06/19 12:58:16;;;;;;;0.65;0.65;;;33.50;99.90;;;;;;5093959;28;20283;-89
2021/06/19 13:00:47;;;;;;;1.27;0.77;;;33.90;99.90;;;;;;5108107;28;20191;-89